Time;durP1;ratioP1;P1;durP2;ratioP2;P2;SDS_P1;SDS_P2;PMS_P1;PMS_P2;Temp;Humidity;BMP_temperature;BMP_pressure;BME280_temperature;BME280_humidity;BME280_pressure;Samples;Min_cycle;Max_cycle;Signal;HPM_P1;HPM_P2
2022/03/03 00:00:54;;;;;;;14.85;9.93;;;;;;;;;;5036776;28;20053;-82
2022/03/03 00:03:22;;;;;;;14.27;9.60;;;;;;;;;;5046321;28;20056;-83
2022/03/03 00:05:50;;;;;;;14.90;10.93;;;;;;;;;;5055735;28;20037;-83
2022/03/03 00:08:17;;;;;;;13.43;10.30;;;;;;;;;;5056472;28;20041;-82
2022/03/03 00:10:45;;;;;;;15.88;9.70;;;;;;;;;;5051205;28;20049;-83
2022/03/03 00:13:13;;;;;;;16.05;9.93;;;;;;;;;;5054369;28;20070;-83
2022/03/03 00:15:41;;;;;;;13.98;9.00;;;;;;;;;;5042250;28;20068;-82
2022/03/03 00:18:08;;;;;;;13.90;9.35;;;;;;;;;;5058961;28;20137;-82
2022/03/03 00:20:36;;;;;;;13.45;9.85;;;;;;;;;;5051836;28;20462;-84
2022/03/03 00:23:03;;;;;;;14.23;10.25;;;;;;;;;;5042272;28;20052;-82
2022/03/03 00:25:31;;;;;;;15.98;9.85;;;;;;;;;;5038446;28;20049;-82
2022/03/03 00:27:58;;;;;;;12.70;9.27;;;;;;;;;;5049703;28;20040;-83
2022/03/03 00:30:26;;;;;;;14.90;8.90;;;;;;;;;;5039983;28;20056;-83
2022/03/03 00:32:53;;;;;;;15.80;9.95;;;;;;;;;;5053671;28;20067;-82
2022/03/03 00:35:21;;;;;;;15.10;9.13;;;;;;;;;;5053342;28;22296;-83
2022/03/03 00:37:49;;;;;;;15.32;9.05;;;;;;;;;;5031208;28;20081;-83
2022/03/03 00:40:18;;;;;;;13.45;9.68;;;;;;;;;;5044993;28;20708;-83
2022/03/03 00:42:45;;;;;;;13.75;9.32;;;;;;;;;;5045838;28;20494;-83
2022/03/03 00:45:13;;;;;;;16.25;9.88;;;;;;;;;;5009689;28;20041;-83
2022/03/03 00:47:40;;;;;;;13.43;9.20;;;;;;;;;;5046320;28;20163;-83
2022/03/03 00:50:08;;;;;;;15.25;8.82;;;;;;;;;;5043743;28;20071;-83
2022/03/03 00:52:36;;;;;;;15.52;7.78;;;;;;;;;;5046020;28;20049;-82
2022/03/03 00:55:03;;;;;;;14.25;10.02;;;;;;;;;;5042426;28;20472;-81
2022/03/03 00:57:32;;;;;;;13.75;9.77;;;;;;;;;;5038435;28;20054;-82
2022/03/03 00:59:59;;;;;;;13.30;8.60;;;;;;;;;;5044134;28;20506;-82
2022/03/03 01:02:27;;;;;;;12.13;8.63;;;;;;;;;;5044169;28;20037;-81
2022/03/03 01:04:54;;;;;;;10.82;7.35;;;;;;;;;;5039848;28;20049;-82
2022/03/03 01:07:22;;;;;;;13.25;8.88;;;;;;;;;;5044027;28;20036;-82
2022/03/03 01:09:50;;;;;;;12.80;9.90;;;;;;;;;;5029995;28;20125;-82
2022/03/03 01:12:18;;;;;;;17.58;10.43;;;;;;;;;;5050190;28;20042;-82
2022/03/03 01:14:45;;;;;;;13.35;8.68;;;;;;;;;;5051206;28;20041;-83
2022/03/03 01:17:13;;;;;;;13.93;9.70;;;;;;;;;;5036965;28;20071;-83
2022/03/03 01:19:41;;;;;;;12.00;8.63;;;;;;;;;;5041925;28;20441;-83
2022/03/03 01:22:12;;;;;;;11.80;7.40;;;;;;;;;;5038987;28;20135;-83
2022/03/03 01:24:39;;;;;;;14.35;10.23;;;;;;;;;;5037098;28;20509;-83
2022/03/03 01:27:07;;;;;;;11.88;8.50;;;;;;;;;;5043735;28;20057;-83
2022/03/03 01:29:35;;;;;;;11.77;8.35;;;;;;;;;;5027340;28;20072;-82
2022/03/03 01:32:03;;;;;;;10.32;6.03;;;;;;;;;;5045468;28;20061;-82
2022/03/03 01:34:30;;;;;;;14.45;9.75;;;;;;;;;;5042099;28;21761;-82
2022/03/03 01:36:58;;;;;;;14.10;8.05;;;;;;;;;;5026464;28;20053;-82
2022/03/03 01:39:26;;;;;;;14.88;8.30;;;;;;;;;;5044665;28;20069;-82
2022/03/03 01:41:53;;;;;;;10.48;6.35;;;;;;;;;;5079150;22;20051;-64
2022/03/03 01:44:21;;;;;;;12.70;8.98;;;;;;;;;;5072663;28;20037;-66
2022/03/03 01:46:52;;;;;;;12.43;8.32;;;;;;;;;;5067282;28;20043;-66
2022/03/03 01:49:20;;;;;;;12.25;8.25;;;;;;;;;;5072034;28;20094;-66
2022/03/03 01:51:48;;;;;;;12.95;8.07;;;;;;;;;;5072005;28;20047;-66
2022/03/03 01:54:15;;;;;;;12.20;8.00;;;;;;;;;;5060036;28;20044;-67
2022/03/03 01:56:43;;;;;;;6.45;5.10;;;;;;;;;;5072494;28;20064;-66
2022/03/03 01:59:10;;;;;;;9.07;5.40;;;;;;;;;;5059483;28;20039;-65
2022/03/03 02:01:39;;;;;;;10.25;7.47;;;;;;;;;;5073747;28;20032;-65
2022/03/03 02:04:07;;;;;;;11.38;6.55;;;;;;;;;;5067299;28;20040;-66
2022/03/03 02:06:35;;;;;;;8.27;5.97;;;;;;;;;;5068054;28;20043;-67
2022/03/03 02:09:03;;;;;;;12.50;9.02;;;;;;;;;;5066182;28;20041;-67
2022/03/03 02:11:31;;;;;;;17.27;8.70;;;;;;;;;;5079149;28;20046;-66
2022/03/03 02:14:01;;;;;;;14.35;8.45;;;;;;;;;;5071738;28;20048;-67
2022/03/03 02:16:29;;;;;;;14.05;8.18;;;;;;;;;;5074100;28;20505;-66
2022/03/03 02:18:56;;;;;;;15.45;9.52;;;;;;;;;;5074784;28;20040;-65
2022/03/03 02:21:24;;;;;;;13.90;7.80;;;;;;;;;;5087252;28;20071;-67
2022/03/03 02:23:51;;;;;;;12.45;7.88;;;;;;;;;;5070603;28;20577;-67
2022/03/03 02:26:21;;;;;;;12.50;8.35;;;;;;;;;;5074299;28;20123;-66
2022/03/03 02:28:48;;;;;;;12.18;9.02;;;;;;;;;;5072024;28;20482;-66
2022/03/03 02:31:16;;;;;;;15.20;10.77;;;;;;;;;;5072374;28;20036;-67
2022/03/03 02:33:44;;;;;;;15.48;8.82;;;;;;;;;;5067115;28;20730;-67
2022/03/03 02:36:26;;;;;;;16.88;10.15;;;;;;;;;;5057928;28;20547;-67
2022/03/03 02:38:54;;;;;;;15.57;10.95;;;;;;;;;;5066466;28;20123;-66
2022/03/03 02:41:22;;;;;;;13.55;8.70;;;;;;;;;;5068573;28;20036;-67
2022/03/03 02:43:50;;;;;;;19.02;12.45;;;;;;;;;;5065391;28;20041;-65
2022/03/03 02:46:18;;;;;;;16.73;10.05;;;;;;;;;;5068743;28;20032;-67
2022/03/03 02:48:46;;;;;;;19.55;12.43;;;;;;;;;;5067969;28;20120;-65
2022/03/03 02:51:13;;;;;;;16.70;9.38;;;;;;;;;;5067833;28;20056;-68
2022/03/03 02:53:41;;;;;;;16.63;9.82;;;;;;;;;;5076392;28;20119;-66
2022/03/03 02:56:09;;;;;;;16.00;8.90;;;;;;;;;;5074776;28;20044;-67
2022/03/03 02:58:37;;;;;;;11.57;7.60;;;;;;;;;;5075490;28;20037;-69
2022/03/03 03:01:05;;;;;;;12.68;7.68;;;;;;;;;;5082300;28;20037;-66
2022/03/03 03:03:33;;;;;;;18.85;12.23;;;;;;;;;;5069796;28;20040;-68
2022/03/03 03:06:01;;;;;;;23.75;14.10;;;;;;;;;;5042366;23;20056;-70
2022/03/03 03:08:28;;;;;;;20.30;10.88;;;;;;;;;;5006231;28;20637;-70
2022/03/03 03:10:56;;;;;;;8.93;5.70;;;;;;;;;;5020990;28;20112;-71
2022/03/03 03:13:23;;;;;;;21.30;11.68;;;;;;;;;;4999254;28;20104;-71
2022/03/03 03:15:51;;;;;;;19.70;10.85;;;;;;;;;;5021205;28;20143;-71
2022/03/03 03:18:19;;;;;;;18.25;10.32;;;;;;;;;;5026211;28;20411;-70
2022/03/03 03:20:47;;;;;;;17.67;9.93;;;;;;;;;;5018092;28;20129;-71
2022/03/03 03:23:16;;;;;;;19.05;10.73;;;;;;;;;;5022483;28;20428;-71
2022/03/03 03:25:44;;;;;;;16.65;10.75;;;;;;;;;;5023640;28;20570;-71
2022/03/03 03:28:11;;;;;;;15.55;9.40;;;;;;;;;;5028820;28;20578;-71
2022/03/03 03:30:40;;;;;;;13.20;7.35;;;;;;;;;;5026041;28;20093;-71
2022/03/03 03:33:07;;;;;;;19.35;10.82;;;;;;;;;;5025475;28;20038;-71
2022/03/03 03:35:35;;;;;;;12.80;7.38;;;;;;;;;;5026337;28;20073;-71
2022/03/03 03:38:03;;;;;;;16.73;10.55;;;;;;;;;;5033589;28;20041;-71
2022/03/03 03:40:30;;;;;;;18.17;12.40;;;;;;;;;;5033689;28;20047;-71
2022/03/03 03:42:57;;;;;;;19.30;10.27;;;;;;;;;;5009835;28;20042;-71
2022/03/03 03:45:25;;;;;;;18.55;10.60;;;;;;;;;;5012880;28;20060;-71
2022/03/03 03:47:52;;;;;;;16.55;11.27;;;;;;;;;;5013791;28;20620;-71
2022/03/03 03:50:22;;;;;;;18.70;10.50;;;;;;;;;;5029454;28;20072;-71
2022/03/03 03:52:50;;;;;;;17.33;9.07;;;;;;;;;;5010642;28;20515;-70
2022/03/03 03:55:17;;;;;;;17.33;11.50;;;;;;;;;;5029635;28;20079;-70
2022/03/03 03:57:45;;;;;;;18.42;11.95;;;;;;;;;;5029344;28;20068;-70
2022/03/03 04:00:14;;;;;;;13.15;8.10;;;;;;;;;;4997601;28;20467;-70
2022/03/03 04:02:42;;;;;;;17.08;11.63;;;;;;;;;;5030978;28;20085;-70
2022/03/03 04:05:09;;;;;;;20.75;13.10;;;;;;;;;;5029709;28;20052;-70
2022/03/03 04:07:37;;;;;;;10.95;6.95;;;;;;;;;;4999549;28;20073;-70
2022/03/03 04:10:05;;;;;;;15.40;9.50;;;;;;;;;;5009809;28;20125;-70
2022/03/03 04:12:32;;;;;;;16.13;10.38;;;;;;;;;;5010662;28;20073;-70
2022/03/03 04:15:00;;;;;;;20.63;12.27;;;;;;;;;;5008696;28;20037;-70
2022/03/03 04:17:28;;;;;;;9.73;7.13;;;;;;;;;;5008506;28;20132;-70
2022/03/03 04:19:56;;;;;;;13.80;10.05;;;;;;;;;;4992974;28;20120;-70
2022/03/03 04:22:23;;;;;;;15.93;9.50;;;;;;;;;;5010781;28;20042;-70
2022/03/03 04:24:50;;;;;;;10.02;7.68;;;;;;;;;;4991494;28;20050;-70
2022/03/03 04:27:18;;;;;;;14.38;9.30;;;;;;;;;;5011658;28;20438;-70
2022/03/03 04:29:45;;;;;;;15.30;9.27;;;;;;;;;;5013085;28;20105;-70
2022/03/03 04:32:13;;;;;;;16.48;11.48;;;;;;;;;;5016625;28;20074;-70
2022/03/03 04:34:40;;;;;;;14.60;10.10;;;;;;;;;;5008959;28;20066;-70
2022/03/03 04:37:08;;;;;;;15.48;9.90;;;;;;;;;;4990635;28;20046;-70
2022/03/03 04:39:35;;;;;;;13.95;8.48;;;;;;;;;;4991803;28;20403;-70
2022/03/03 04:42:03;;;;;;;16.27;10.50;;;;;;;;;;5008245;28;20084;-70
2022/03/03 04:44:30;;;;;;;14.77;10.27;;;;;;;;;;5007537;28;20034;-70
2022/03/03 04:46:58;;;;;;;13.43;8.05;;;;;;;;;;4989278;28;20045;-70
2022/03/03 04:49:27;;;;;;;16.33;10.32;;;;;;;;;;4990669;28;20096;-70
2022/03/03 04:51:54;;;;;;;15.07;11.20;;;;;;;;;;4992538;28;20038;-71
2022/03/03 04:54:22;;;;;;;15.57;10.43;;;;;;;;;;5007879;28;20042;-70
2022/03/03 04:56:51;;;;;;;14.07;9.88;;;;;;;;;;4990998;28;20042;-70
2022/03/03 04:59:18;;;;;;;9.55;6.93;;;;;;;;;;5009794;28;20034;-71
2022/03/03 05:01:46;;;;;;;14.75;8.38;;;;;;;;;;5007037;28;20089;-71
2022/03/03 05:04:14;;;;;;;14.48;10.32;;;;;;;;;;5008151;28;20510;-71
2022/03/03 05:06:48;;;;;;;15.68;10.90;;;;;;;;;;5001128;28;20038;-70
2022/03/03 05:09:15;;;;;;;12.82;9.93;;;;;;;;;;5023058;28;20037;-70
2022/03/03 05:11:43;;;;;;;15.38;10.00;;;;;;;;;;4993681;28;20056;-70
2022/03/03 05:14:11;;;;;;;15.30;9.48;;;;;;;;;;5013725;28;20559;-70
2022/03/03 05:16:38;;;;;;;11.27;7.72;;;;;;;;;;4993059;28;20065;-70
2022/03/03 05:19:06;;;;;;;17.15;10.38;;;;;;;;;;4994984;28;20392;-70
2022/03/03 05:21:33;;;;;;;9.27;5.93;;;;;;;;;;5006958;28;20042;-70
2022/03/03 05:24:01;;;;;;;12.70;8.40;;;;;;;;;;5000648;28;20333;-70
2022/03/03 05:26:28;;;;;;;14.93;9.15;;;;;;;;;;5029442;28;20439;-70
2022/03/03 05:28:55;;;;;;;13.20;7.72;;;;;;;;;;5017623;28;20053;-70
2022/03/03 05:31:23;;;;;;;16.70;10.73;;;;;;;;;;5012288;28;20045;-71
2022/03/03 05:33:51;;;;;;;11.93;8.10;;;;;;;;;;5019342;28;20053;-71
2022/03/03 05:36:18;;;;;;;14.50;7.90;;;;;;;;;;5017218;28;20046;-71
2022/03/03 05:38:46;;;;;;;9.93;5.80;;;;;;;;;;4976627;28;20124;-71
2022/03/03 05:41:13;;;;;;;6.10;4.25;;;;;;;;;;5015422;28;20045;-70
2022/03/03 05:43:41;;;;;;;8.63;6.72;;;;;;;;;;4994754;28;20065;-70
2022/03/03 05:46:08;;;;;;;8.90;6.13;;;;;;;;;;5016655;28;20129;-71
2022/03/03 05:48:36;;;;;;;14.13;9.85;;;;;;;;;;5012892;28;20571;-70
2022/03/03 05:51:03;;;;;;;9.18;6.90;;;;;;;;;;5023232;28;20069;-71
2022/03/03 05:53:31;;;;;;;15.38;9.73;;;;;;;;;;4998897;28;20049;-70
2022/03/03 05:55:59;;;;;;;17.33;11.95;;;;;;;;;;5016092;28;20463;-70
2022/03/03 05:58:35;;;;;;;11.30;7.07;;;;;;;;;;5005678;28;20144;-70
2022/03/03 06:01:03;;;;;;;12.00;8.65;;;;;;;;;;5005538;28;20120;-70
2022/03/03 06:03:30;;;;;;;12.55;8.00;;;;;;;;;;5008531;28;20052;-70
2022/03/03 06:06:02;;;;;;;14.60;9.05;;;;;;;;;;5005870;28;20507;-71
2022/03/03 06:08:32;;;;;;;18.83;10.55;;;;;;;;;;4993853;28;20042;-70
2022/03/03 06:11:05;;;;;;;17.02;11.63;;;;;;;;;;5009162;28;20088;-70
2022/03/03 06:13:36;;;;;;;11.32;8.38;;;;;;;;;;5014477;28;20461;-71
2022/03/03 06:16:05;;;;;;;14.23;9.95;;;;;;;;;;5017387;28;20144;-70
2022/03/03 06:18:33;;;;;;;11.82;8.88;;;;;;;;;;4995375;28;20112;-71
2022/03/03 06:21:01;;;;;;;15.43;7.20;;;;;;;;;;5012466;28;20045;-70
2022/03/03 06:23:28;;;;;;;10.23;7.05;;;;;;;;;;5016280;28;20275;-71
2022/03/03 06:26:06;;;;;;;15.93;9.45;;;;;;;;;;4997628;28;20042;-70
2022/03/03 06:28:34;;;;;;;9.13;5.55;;;;;;;;;;5013804;28;20041;-70
2022/03/03 06:31:02;;;;;;;14.45;8.65;;;;;;;;;;5016054;28;20073;-70
2022/03/03 06:33:30;;;;;;;14.35;9.70;;;;;;;;;;4993027;28;20037;-69
2022/03/03 06:35:57;;;;;;;14.00;9.43;;;;;;;;;;5012711;28;20045;-70
2022/03/03 06:38:25;;;;;;;14.05;9.18;;;;;;;;;;4989242;28;20049;-70
2022/03/03 06:40:57;;;;;;;17.90;10.80;;;;;;;;;;5018849;28;20053;-70
2022/03/03 06:43:27;;;;;;;12.38;8.30;;;;;;;;;;5007417;28;20045;-70
2022/03/03 06:45:55;;;;;;;14.52;8.70;;;;;;;;;;5005013;28;20038;-70
2022/03/03 06:48:23;;;;;;;17.25;11.50;;;;;;;;;;5013504;28;20070;-70
2022/03/03 06:50:51;;;;;;;15.88;11.48;;;;;;;;;;5002118;28;20466;-70
2022/03/03 06:53:22;;;;;;;16.85;9.68;;;;;;;;;;5009902;28;20145;-70
2022/03/03 06:55:49;;;;;;;6.88;4.07;;;;;;;;;;5016878;28;20092;-70
2022/03/03 06:58:17;;;;;;;15.98;9.98;;;;;;;;;;5003892;28;20120;-70
2022/03/03 07:00:48;;;;;;;9.23;5.82;;;;;;;;;;4983220;28;20038;-70
2022/03/03 07:03:16;;;;;;;15.90;9.82;;;;;;;;;;5007584;28;20046;-70
2022/03/03 07:05:44;;;;;;;17.23;12.13;;;;;;;;;;5009977;28;20125;-70
2022/03/03 07:08:11;;;;;;;15.25;9.45;;;;;;;;;;5004599;28;20100;-71
2022/03/03 07:10:39;;;;;;;14.45;8.98;;;;;;;;;;4987785;28;20050;-70
2022/03/03 07:13:06;;;;;;;14.05;9.90;;;;;;;;;;5006074;28;20066;-70
2022/03/03 07:15:34;;;;;;;16.92;11.38;;;;;;;;;;5008793;28;20045;-70
2022/03/03 07:18:03;;;;;;;11.45;7.93;;;;;;;;;;5006786;28;20126;-70
2022/03/03 07:20:36;;;;;;;14.27;7.65;;;;;;;;;;4984317;28;20597;-71
2022/03/03 07:23:05;;;;;;;5.22;4.35;;;;;;;;;;5002411;28;20144;-70
2022/03/03 07:25:38;;;;;;;11.07;8.40;;;;;;;;;;4992119;28;20038;-71
2022/03/03 07:28:10;;;;;;;7.40;5.18;;;;;;;;;;5010419;28;20041;-71
2022/03/03 07:30:42;;;;;;;19.67;12.52;;;;;;;;;;4988407;28;20132;-71
2022/03/03 07:33:14;;;;;;;18.33;9.45;;;;;;;;;;5009216;28;20092;-71
2022/03/03 07:35:45;;;;;;;15.05;7.28;;;;;;;;;;5009448;28;20101;-71
2022/03/03 07:38:14;;;;;;;13.00;10.35;;;;;;;;;;4990509;28;20128;-71
2022/03/03 07:40:42;;;;;;;17.33;11.80;;;;;;;;;;5006509;28;20484;-71
2022/03/03 07:43:11;;;;;;;15.48;11.00;;;;;;;;;;4982865;28;20031;-71
2022/03/03 07:45:39;;;;;;;16.00;11.35;;;;;;;;;;5001880;28;20159;-71
2022/03/03 07:48:07;;;;;;;14.93;9.18;;;;;;;;;;4985987;28;20136;-71
2022/03/03 07:50:39;;;;;;;15.70;11.25;;;;;;;;;;4982016;28;20045;-71
2022/03/03 07:53:09;;;;;;;17.00;10.65;;;;;;;;;;5003886;28;20042;-72
2022/03/03 07:55:47;;;;;;;15.38;10.52;;;;;;;;;;5002780;28;20462;-71
2022/03/03 07:58:16;;;;;;;18.42;11.30;;;;;;;;;;4984129;28;20053;-71
2022/03/03 08:00:47;;;;;;;18.17;11.45;;;;;;;;;;4995504;28;20152;-72
2022/03/03 08:03:19;;;;;;;10.73;6.32;;;;;;;;;;5008788;28;20045;-71
2022/03/03 08:05:48;;;;;;;14.77;10.32;;;;;;;;;;4998438;28;20033;-71
2022/03/03 08:08:16;;;;;;;13.45;9.00;;;;;;;;;;5014027;28;20542;-71
2022/03/03 08:10:44;;;;;;;17.48;10.32;;;;;;;;;;5029257;28;20041;-71
2022/03/03 08:13:13;;;;;;;24.85;11.82;;;;;;;;;;5027533;28;20045;-72
2022/03/03 08:15:42;;;;;;;18.77;13.25;;;;;;;;;;5025845;28;20041;-72
2022/03/03 08:18:10;;;;;;;18.35;12.15;;;;;;;;;;5028445;28;20048;-71
2022/03/03 08:20:38;;;;;;;17.75;12.68;;;;;;;;;;5026566;28;20049;-72
2022/03/03 08:23:06;;;;;;;19.00;12.15;;;;;;;;;;5009570;28;20057;-71
2022/03/03 08:25:35;;;;;;;13.80;8.88;;;;;;;;;;5028552;28;20062;-72
2022/03/03 08:28:03;;;;;;;17.27;12.13;;;;;;;;;;5028078;28;20131;-72
2022/03/03 08:30:30;;;;;;;17.77;12.30;;;;;;;;;;5029228;28;21996;-72
2022/03/03 08:33:00;;;;;;;21.48;12.38;;;;;;;;;;5027242;28;20132;-71
2022/03/03 08:35:31;;;;;;;19.63;12.73;;;;;;;;;;5027381;28;20049;-72
2022/03/03 08:38:03;;;;;;;16.73;12.07;;;;;;;;;;5007187;28;20304;-72
2022/03/03 08:40:31;;;;;;;17.73;12.27;;;;;;;;;;5028949;28;20037;-72
2022/03/03 08:42:59;;;;;;;22.42;12.43;;;;;;;;;;4992937;28;20069;-72
2022/03/03 08:45:30;;;;;;;15.50;12.35;;;;;;;;;;5028978;28;20041;-72
2022/03/03 08:47:59;;;;;;;23.80;13.38;;;;;;;;;;4988606;28;20053;-71
2022/03/03 08:50:31;;;;;;;21.80;12.30;;;;;;;;;;5010139;28;20037;-71
2022/03/03 08:52:59;;;;;;;17.67;11.70;;;;;;;;;;5018551;28;20491;-70
2022/03/03 08:55:27;;;;;;;17.45;12.48;;;;;;;;;;5022786;28;20033;-70
2022/03/03 08:57:55;;;;;;;19.02;12.52;;;;;;;;;;5025560;28;20088;-71
2022/03/03 09:00:22;;;;;;;20.27;12.55;;;;;;;;;;5027933;28;20506;-71
2022/03/03 09:02:50;;;;;;;16.55;12.98;;;;;;;;;;5010100;28;20060;-71
2022/03/03 09:05:18;;;;;;;20.17;12.38;;;;;;;;;;5027118;28;20042;-72
2022/03/03 09:07:46;;;;;;;15.20;11.93;;;;;;;;;;5036848;23;20041;-64
2022/03/03 09:10:14;;;;;;;14.93;12.20;;;;;;;;;;5037503;28;20638;-65
2022/03/03 09:12:42;;;;;;;16.92;12.90;;;;;;;;;;5036506;28;20188;-65
2022/03/03 09:15:10;;;;;;;14.40;12.77;;;;;;;;;;5033568;28;20052;-65
2022/03/03 09:17:38;;;;;;;13.80;11.77;;;;;;;;;;5028590;28;20065;-66
2022/03/03 09:20:07;;;;;;;18.45;12.32;;;;;;;;;;5011490;28;20095;-66
2022/03/03 09:22:35;;;;;;;18.55;12.45;;;;;;;;;;5029307;28;20040;-66
2022/03/03 09:25:03;;;;;;;21.08;13.02;;;;;;;;;;5010133;28;20084;-65
2022/03/03 09:27:32;;;;;;;17.10;13.80;;;;;;;;;;5031030;28;20509;-65
2022/03/03 09:29:59;;;;;;;22.80;12.80;;;;;;;;;;5007903;28;20046;-66
2022/03/03 09:32:27;;;;;;;18.02;12.50;;;;;;;;;;4987649;28;20038;-65
2022/03/03 09:34:55;;;;;;;15.88;13.13;;;;;;;;;;4999939;28;20057;-66
2022/03/03 09:37:22;;;;;;;19.83;12.38;;;;;;;;;;5015289;28;20447;-66
2022/03/03 09:39:50;;;;;;;18.17;12.80;;;;;;;;;;5015679;28;20304;-63
2022/03/03 09:42:18;;;;;;;19.08;14.73;;;;;;;;;;5005024;28;20045;-63
2022/03/03 09:44:46;;;;;;;20.50;13.80;;;;;;;;;;5021491;28;20153;-63
2022/03/03 09:47:16;;;;;;;32.05;14.82;;;;;;;;;;5020612;28;20037;-64
2022/03/03 09:49:46;;;;;;;19.08;12.57;;;;;;;;;;5008496;28;20451;-64
2022/03/03 09:52:13;;;;;;;16.75;12.98;;;;;;;;;;5010130;28;20145;-64
2022/03/03 09:54:42;;;;;;;17.20;13.68;;;;;;;;;;5000083;28;20325;-64
2022/03/03 09:57:10;;;;;;;19.88;14.93;;;;;;;;;;5001860;28;20515;-64
2022/03/03 09:59:37;;;;;;;24.30;15.05;;;;;;;;;;4994471;28;20054;-64
2022/03/03 10:02:06;;;;;;;29.42;14.50;;;;;;;;;;4992702;28;20423;-64
2022/03/03 10:04:34;;;;;;;19.38;13.38;;;;;;;;;;5002950;28;20137;-65
2022/03/03 10:07:04;;;;;;;19.92;15.13;;;;;;;;;;5002948;28;20072;-64
2022/03/03 10:09:32;;;;;;;22.33;15.55;;;;;;;;;;5011539;28;20044;-64
2022/03/03 10:12:06;;;;;;;20.08;14.27;;;;;;;;;;4997835;28;20063;-65
2022/03/03 10:14:34;;;;;;;24.00;14.65;;;;;;;;;;5018262;28;20059;-64
2022/03/03 10:17:02;;;;;;;23.70;15.57;;;;;;;;;;5023361;28;20049;-63
2022/03/03 10:19:54;;;;;;;19.05;13.52;;;;;;;;;;5012624;28;20049;-64
2022/03/03 10:22:41;;;;;;;19.15;13.15;;;;;;;;;;5014143;28;20129;-64
2022/03/03 10:25:10;;;;;;;17.20;12.35;;;;;;;;;;5005618;28;20131;-64
2022/03/03 10:27:37;;;;;;;22.52;13.43;;;;;;;;;;5002481;28;20143;-65
2022/03/03 10:30:07;;;;;;;16.80;13.25;;;;;;;;;;5002575;28;20061;-64
2022/03/03 10:32:39;;;;;;;18.13;12.40;;;;;;;;;;5008338;28;20061;-66
2022/03/03 10:35:17;;;;;;;16.33;12.15;;;;;;;;;;5004063;28;20525;-64
2022/03/03 10:37:45;;;;;;;17.08;13.07;;;;;;;;;;5010087;28;20045;-66
2022/03/03 10:40:14;;;;;;;15.30;11.00;;;;;;;;;;5001850;28;20076;-66
2022/03/03 10:42:42;;;;;;;16.10;11.40;;;;;;;;;;5003189;28;20144;-65
2022/03/03 10:45:11;;;;;;;17.70;11.15;;;;;;;;;;5002875;28;20034;-65
2022/03/03 10:47:44;;;;;;;16.13;10.73;;;;;;;;;;5001048;28;20046;-65
2022/03/03 10:50:11;;;;;;;15.27;10.15;;;;;;;;;;5002930;28;20044;-64
2022/03/03 10:52:40;;;;;;;15.18;9.95;;;;;;;;;;5015959;28;20535;-64
2022/03/03 10:55:17;;;;;;;16.85;10.82;;;;;;;;;;4999815;28;20611;-64
2022/03/03 10:57:46;;;;;;;66.40;16.40;;;;;;;;;;5015226;28;20198;-63
2022/03/03 11:00:23;;;;;;;13.40;10.18;;;;;;;;;;5002446;28;20042;-64
2022/03/03 11:02:52;;;;;;;17.83;10.30;;;;;;;;;;5016599;28;20076;-63
2022/03/03 11:05:20;;;;;;;14.43;10.13;;;;;;;;;;5010413;28;20517;-64
2022/03/03 11:07:49;;;;;;;13.48;9.38;;;;;;;;;;5009098;28;20056;-63
2022/03/03 11:10:21;;;;;;;14.20;8.98;;;;;;;;;;5009483;28;20030;-64
2022/03/03 11:12:49;;;;;;;12.73;9.25;;;;;;;;;;5019910;28;20111;-63
2022/03/03 11:15:18;;;;;;;14.93;9.30;;;;;;;;;;5016195;28;20052;-63
2022/03/03 11:17:47;;;;;;;11.00;8.70;;;;;;;;;;5009337;28;20054;-63
2022/03/03 11:20:16;;;;;;;11.60;8.93;;;;;;;;;;5017408;28;20477;-65
2022/03/03 11:22:44;;;;;;;11.57;9.20;;;;;;;;;;5012964;28;20086;-64
2022/03/03 11:25:19;;;;;;;15.75;10.07;;;;;;;;;;5006014;28;20101;-63
2022/03/03 11:27:47;;;;;;;10.70;8.90;;;;;;;;;;5005361;28;20073;-65
2022/03/03 11:30:16;;;;;;;15.80;8.88;;;;;;;;;;5014683;28;20129;-65
2022/03/03 11:32:44;;;;;;;15.15;8.85;;;;;;;;;;5016939;28;20037;-63
2022/03/03 11:35:14;;;;;;;13.30;8.65;;;;;;;;;;5017945;28;20133;-65
2022/03/03 11:37:43;;;;;;;15.45;8.63;;;;;;;;;;5009011;28;20403;-65
2022/03/03 11:40:12;;;;;;;7.25;5.63;;;;;;;;;;5006901;28;20049;-64
2022/03/03 11:42:47;;;;;;;11.68;8.00;;;;;;;;;;5018865;28;20037;-63
2022/03/03 11:45:15;;;;;;;10.95;8.40;;;;;;;;;;5004292;28;20053;-64
2022/03/03 11:47:47;;;;;;;10.32;8.45;;;;;;;;;;5001087;28;20070;-63
2022/03/03 11:50:19;;;;;;;9.27;6.90;;;;;;;;;;5015949;28;20093;-63
2022/03/03 11:52:59;;;;;;;14.05;8.70;;;;;;;;;;4997173;28;20460;-64
2022/03/03 11:55:37;;;;;;;10.70;8.70;;;;;;;;;;4998445;28;20053;-63
2022/03/03 11:58:06;;;;;;;12.40;8.95;;;;;;;;;;4996580;28;20461;-63
2022/03/03 12:00:36;;;;;;;16.55;8.82;;;;;;;;;;5012589;28;20041;-64
2022/03/03 12:03:07;;;;;;;14.88;7.88;;;;;;;;;;5018636;28;20446;-62
2022/03/03 12:05:36;;;;;;;9.82;7.53;;;;;;;;;;5014420;28;20407;-63
2022/03/03 12:08:03;;;;;;;11.80;8.60;;;;;;;;;;4998144;28;20065;-66
2022/03/03 12:10:32;;;;;;;9.40;7.45;;;;;;;;;;5004777;28;20463;-64
2022/03/03 12:13:26;;;;;;;9.73;6.85;;;;;;;;;;5001113;28;20401;-64
2022/03/03 12:16:12;;;;;;;9.13;7.05;;;;;;;;;;4988501;28;20073;-64
2022/03/03 12:18:40;;;;;;;11.85;6.30;;;;;;;;;;5010182;28;20044;-64
2022/03/03 12:21:26;;;;;;;8.02;6.65;;;;;;;;;;5002161;28;20054;-65
2022/03/03 12:24:34;;;;;;;8.05;5.93;;;;;;;;;;5010569;28;20045;-63
2022/03/03 12:27:01;;;;;;;8.27;6.20;;;;;;;;;;4993408;28;20047;-65
2022/03/03 12:29:29;;;;;;;8.18;6.53;;;;;;;;;;4977928;28;20034;-61
2022/03/03 12:31:57;;;;;;;10.32;6.68;;;;;;;;;;5004939;28;20135;-63
2022/03/03 12:34:25;;;;;;;7.18;6.25;;;;;;;;;;4999588;28;20042;-64
2022/03/03 12:36:55;;;;;;;6.70;6.03;;;;;;;;;;5003561;28;20065;-62
2022/03/03 12:39:23;;;;;;;12.63;7.15;;;;;;;;;;5001631;28;20117;-62
2022/03/03 12:41:52;;;;;;;12.40;7.18;;;;;;;;;;4994115;28;20046;-62
2022/03/03 12:44:20;;;;;;;8.60;6.90;;;;;;;;;;4995328;28;20100;-64
2022/03/03 12:46:48;;;;;;;15.60;7.53;;;;;;;;;;5001820;28;20096;-63
2022/03/03 12:49:16;;;;;;;7.70;6.90;;;;;;;;;;4996451;28;20069;-64
2022/03/03 12:51:45;;;;;;;9.05;6.68;;;;;;;;;;4998450;28;20034;-64
2022/03/03 12:54:13;;;;;;;8.02;7.15;;;;;;;;;;4993496;28;20064;-64
2022/03/03 12:56:41;;;;;;;7.80;6.32;;;;;;;;;;4999027;28;20083;-64
2022/03/03 12:59:09;;;;;;;15.25;6.90;;;;;;;;;;5009663;28;20042;-63
2022/03/03 13:01:37;;;;;;;11.40;6.38;;;;;;;;;;4999178;28;20503;-64
2022/03/03 13:04:06;;;;;;;7.03;5.43;;;;;;;;;;4980066;28;20271;-64
2022/03/03 13:06:34;;;;;;;10.85;6.88;;;;;;;;;;5009530;28;20046;-64
2022/03/03 13:09:02;;;;;;;11.05;6.32;;;;;;;;;;4999917;28;20037;-63
2022/03/03 13:11:30;;;;;;;10.95;7.40;;;;;;;;;;5012243;28;20150;-63
2022/03/03 13:14:01;;;;;;;11.20;7.18;;;;;;;;;;5008245;28;20065;-63
2022/03/03 13:16:38;;;;;;;9.32;8.00;;;;;;;;;;5012755;28;21114;-63
2022/03/03 13:19:06;;;;;;;;;;;;;;;;;;4998823;28;20049;-63
2022/03/03 13:21:34;;;;;;;12.27;7.07;;;;;;;;;;5016835;28;20068;-64
2022/03/03 13:24:06;;;;;;;8.30;7.15;;;;;;;;;;5012321;28;20054;-64
2022/03/03 13:26:42;;;;;;;12.38;6.82;;;;;;;;;;5020990;28;20033;-64
2022/03/03 13:29:19;;;;;;;9.10;7.00;;;;;;;;;;5015693;28;20060;-63
2022/03/03 13:31:51;;;;;;;11.40;6.50;;;;;;;;;;5015933;28;20515;-64
2022/03/03 13:34:22;;;;;;;11.55;6.78;;;;;;;;;;5009587;28;20038;-63
2022/03/03 13:36:52;;;;;;;7.50;6.35;;;;;;;;;;5010176;28;20116;-64
2022/03/03 13:39:33;;;;;;;9.88;7.00;;;;;;;;;;5014867;28;20042;-63
2022/03/03 13:42:06;;;;;;;9.82;6.88;;;;;;;;;;4998181;28;20336;-64
2022/03/03 13:44:57;;;;;;;10.30;6.38;;;;;;;;;;4992922;28;20450;-63
2022/03/03 13:47:26;;;;;;;7.20;5.72;;;;;;;;;;5017336;28;20073;-64
2022/03/03 13:49:56;;;;;;;11.40;6.28;;;;;;;;;;5012824;28;20176;-63
2022/03/03 13:52:29;;;;;;;7.88;6.20;;;;;;;;;;4999466;28;21288;-64
2022/03/03 13:54:58;;;;;;;10.68;6.88;;;;;;;;;;4994907;28;20076;-63
2022/03/03 13:57:31;;;;;;;8.38;6.40;;;;;;;;;;5002269;28;20419;-63
2022/03/03 13:59:59;;;;;;;6.97;6.20;;;;;;;;;;5016181;28;20045;-64
2022/03/03 14:02:27;;;;;;;8.43;6.40;;;;;;;;;;5014983;28;20187;-64
2022/03/03 14:04:58;;;;;;;7.72;6.40;;;;;;;;;;5012177;28;20111;-63
2022/03/03 14:07:29;;;;;;;10.48;7.57;;;;;;;;;;5017619;28;20041;-63
2022/03/03 14:09:57;;;;;;;8.93;6.70;;;;;;;;;;5009131;28;20065;-63
2022/03/03 14:12:25;;;;;;;11.73;7.55;;;;;;;;;;5006040;28;20037;-62
2022/03/03 14:14:53;;;;;;;10.60;7.30;;;;;;;;;;5013329;28;20510;-63
2022/03/03 14:17:20;;;;;;;10.45;7.25;;;;;;;;;;5010152;28;20049;-62
2022/03/03 14:19:48;;;;;;;10.68;7.38;;;;;;;;;;4998229;28;20045;-63
2022/03/03 14:22:19;;;;;;;8.35;6.40;;;;;;;;;;5012115;28;20241;-63
2022/03/03 14:24:48;;;;;;;12.20;9.13;;;;;;;;;;5013968;28;20041;-63
2022/03/03 14:27:16;;;;;;;9.52;7.53;;;;;;;;;;5018947;28;20042;-64
2022/03/03 14:29:44;;;;;;;9.38;6.70;;;;;;;;;;5015745;28;20069;-64
2022/03/03 14:32:12;;;;;;;12.43;6.93;;;;;;;;;;5014179;28;20150;-64
2022/03/03 14:34:39;;;;;;;10.73;7.55;;;;;;;;;;5018917;28;20063;-62
2022/03/03 14:37:06;;;;;;;10.07;7.40;;;;;;;;;;4998071;28;20053;-64